createdAt,value
2018-04-30T00:00:30.077Z,22.48
2018-04-30T00:01:30.363Z,22.51
2018-04-30T00:02:30.176Z,22.43
2018-04-30T00:03:30.409Z,22.62
2018-04-30T00:04:30.179Z,22.51
2018-04-30T00:05:30.208Z,22.48
2018-04-30T00:06:30.234Z,22.55
2018-04-30T00:07:30.268Z,22.51
2018-04-30T00:08:30.326Z,22.38
2018-04-30T00:09:30.564Z,22.38
2018-04-30T00:10:30.577Z,22.3
2018-04-30T00:11:30.362Z,22.25
2018-04-30T00:12:30.133Z,22.33
2018-04-30T00:13:30.668Z,22.3
2018-04-30T00:14:30.433Z,22.29
2018-04-30T00:15:30.490Z,22.33
2018-04-30T00:16:30.748Z,22.29
2018-04-30T00:17:30.511Z,22.18
2018-04-30T00:18:30.785Z,22.18
2018-04-30T00:19:30.560Z,22.36
2018-04-30T00:20:30.837Z,22.18
2018-04-30T00:21:30.865Z,22.18
2018-04-30T00:22:30.637Z,22.15
2018-04-30T00:23:30.971Z,22.18
2018-04-30T00:24:30.940Z,22.22
2018-04-30T00:25:30.967Z,22.17
2018-04-30T00:26:30.737Z,22.23
2018-04-30T00:27:30.763Z,22.23
2018-04-30T00:28:31.035Z,22.22
2018-04-30T00:29:30.558Z,22.23
2018-04-30T00:30:31.101Z,22.33
2018-04-30T00:31:31.127Z,22.26
2018-04-30T00:32:31.151Z,22.2
2018-04-30T00:33:30.690Z,22.25
2018-04-30T00:34:30.699Z,22.22
2018-04-30T00:35:31.237Z,22.3
2018-04-30T00:36:31.255Z,22.29
2018-04-30T00:37:31.283Z,22.25
2018-04-30T00:38:31.357Z,22.44
2018-04-30T00:39:31.376Z,22.39
2018-04-30T00:40:31.368Z,22.47
2018-04-30T00:41:31.131Z,22.39
2018-04-30T00:42:31.158Z,22.38
2018-04-30T00:43:31.444Z,22.44
2018-04-30T00:44:31.469Z,22.41
2018-04-30T00:45:31.485Z,22.5
2018-04-30T00:46:31.267Z,22.51
2018-04-30T00:47:31.543Z,22.51
2018-04-30T00:48:31.312Z,22.53
2018-04-30T00:49:31.595Z,22.51
2018-04-30T00:50:31.370Z,22.59
2018-04-30T00:51:31.640Z,22.5
2018-04-30T00:52:31.421Z,22.55
2018-04-30T00:53:31.492Z,22.51
2018-04-30T00:54:31.722Z,22.6
2018-04-30T00:55:31.749Z,22.51
2018-04-30T00:56:31.776Z,22.54
2018-04-30T00:57:31.543Z,22.48
2018-04-30T00:58:31.569Z,22.47
2018-04-30T00:59:31.591Z,22.5
2018-04-30T01:00:31.619Z,22.43
2018-04-30T01:01:31.648Z,22.47
2018-04-30T01:02:31.921Z,22.5
2018-04-30T01:03:32.186Z,22.47
2018-04-30T01:04:31.725Z,22.39
2018-04-30T01:05:32.002Z,22.38
2018-04-30T01:06:32.028Z,22.32
2018-04-30T01:07:31.798Z,22.2
2018-04-30T01:08:31.877Z,22.17
2018-04-30T01:09:32.105Z,22.14
2018-04-30T01:10:31.879Z,22.17
2018-04-30T01:11:31.897Z,22.29
2018-04-30T01:12:32.165Z,22.2
2018-04-30T01:13:31.946Z,22.18
2018-04-30T01:14:31.965Z,22.14
2018-04-30T01:15:32.246Z,22.13
2018-04-30T01:16:32.269Z,22.13
2018-04-30T01:17:32.297Z,22.14
2018-04-30T01:18:31.821Z,22.11
2018-04-30T01:19:32.345Z,22.11
2018-04-30T01:20:32.377Z,22.14
2018-04-30T01:21:32.420Z,22.18
2018-04-30T01:22:32.445Z,22.13
2018-04-30T01:23:32.519Z,21.95
2018-04-30T01:24:32.491Z,21.8
2018-04-30T01:25:32.271Z,21.83
2018-04-30T01:26:32.546Z,21.91
2018-04-30T01:27:32.345Z,21.88
2018-04-30T01:28:32.592Z,21.83
2018-04-30T01:29:32.366Z,21.77
2018-04-30T01:30:32.635Z,21.77
2018-04-30T01:31:32.655Z,21.92
2018-04-30T01:32:32.425Z,21.95
2018-04-30T01:33:32.452Z,21.96
2018-04-30T01:34:32.747Z,21.91
2018-04-30T01:35:32.758Z,21.79
2018-04-30T01:36:32.782Z,21.95
2018-04-30T01:37:32.805Z,21.96
2018-04-30T01:38:32.837Z,21.96
2018-04-30T01:39:32.912Z,22.02
2018-04-30T01:40:32.889Z,21.98
2018-04-30T01:41:32.909Z,21.75
2018-04-30T01:42:32.939Z,21.79
2018-04-30T01:43:32.963Z,21.76
2018-04-30T01:44:32.985Z,21.76
2018-04-30T01:45:33.014Z,21.77
2018-04-30T01:46:33.040Z,21.82
2018-04-30T01:47:33.068Z,21.76
2018-04-30T01:48:33.112Z,21.67
2018-04-30T01:49:33.130Z,21.7
2018-04-30T01:50:33.157Z,21.6
2018-04-30T01:51:33.179Z,21.61
2018-04-30T01:52:33.199Z,21.64
2018-04-30T01:53:33.235Z,21.61
2018-04-30T01:54:33.304Z,21.5
2018-04-30T01:55:33.284Z,21.42
2018-04-30T01:56:33.302Z,21.43
2018-04-30T01:57:33.336Z,21.43
2018-04-30T01:58:33.103Z,21.48
2018-04-30T01:59:32.872Z,21.48
2018-04-30T02:00:33.413Z,21.48
2018-04-30T02:01:33.177Z,21.4
2018-04-30T02:02:33.457Z,21.36
2018-04-30T02:03:33.482Z,21.48
2018-04-30T02:04:33.561Z,21.35
2018-04-30T02:05:33.283Z,21.33
2018-04-30T02:06:33.558Z,21.29
2018-04-30T02:07:33.331Z,21.4
2018-04-30T02:08:33.614Z,21.32
2018-04-30T02:09:33.387Z,21.27
2018-04-30T02:10:33.661Z,21.37
2018-04-30T02:11:33.690Z,21.4
2018-04-30T02:12:33.830Z,21.37
2018-04-30T02:13:33.482Z,21.4
2018-04-30T02:14:33.251Z,21.48
2018-04-30T02:15:33.282Z,21.48
2018-04-30T02:16:33.804Z,21.3
2018-04-30T02:17:33.841Z,21.3
2018-04-30T02:18:33.603Z,21.4
2018-04-30T02:19:33.629Z,21.36
2018-04-30T02:20:33.960Z,21.33
2018-04-30T02:21:33.423Z,21.45
2018-04-30T02:22:33.454Z,21.33
2018-04-30T02:23:33.979Z,21.35
2018-04-30T02:24:33.755Z,21.33
2018-04-30T02:25:34.039Z,21.4
2018-04-30T02:26:34.060Z,21.3
2018-04-30T02:27:34.111Z,21.36
2018-04-30T02:28:34.119Z,21.35
2018-04-30T02:29:34.132Z,21.43
2018-04-30T02:30:34.158Z,21.45
2018-04-30T02:31:34.191Z,21.33
2018-04-30T02:32:34.230Z,21.37
2018-04-30T02:33:34.365Z,21.35
2018-04-30T02:34:34.263Z,21.4
2018-04-30T02:35:34.357Z,21.46
2018-04-30T02:36:34.067Z,21.52
2018-04-30T02:37:34.108Z,21.4
2018-04-30T02:38:34.109Z,21.37
2018-04-30T02:39:34.384Z,21.37
2018-04-30T02:40:34.413Z,21.36
2018-04-30T02:41:34.442Z,21.29
2018-04-30T02:42:34.468Z,21.25
2018-04-30T02:43:34.236Z,21.18
2018-04-30T02:44:34.512Z,21.14
2018-04-30T02:45:34.027Z,21.15
2018-04-30T02:46:34.577Z,21.29
2018-04-30T02:47:34.585Z,21.35
2018-04-30T02:48:34.366Z,21.3
2018-04-30T02:49:34.641Z,21.35
2018-04-30T02:50:34.463Z,21.35
2018-04-30T02:51:34.690Z,21.32
2018-04-30T02:52:34.708Z,21.27
2018-04-30T02:53:34.743Z,21.2
2018-04-30T02:54:34.254Z,21.12
2018-04-30T02:55:34.786Z,21.03
2018-04-30T02:56:34.822Z,21.05
2018-04-30T02:57:34.587Z,21.11
2018-04-30T02:58:34.913Z,21.18
2018-04-30T02:59:34.629Z,21.12
2018-04-30T03:00:34.758Z,21.05
2018-04-30T03:01:34.935Z,21.02
2018-04-30T03:02:34.958Z,21.02
2018-04-30T03:03:34.988Z,21.02
2018-04-30T03:04:35.016Z,20.84
2018-04-30T03:05:34.837Z,20.85
2018-04-30T03:06:35.064Z,20.7
2018-04-30T03:07:35.091Z,20.56
2018-04-30T03:08:34.860Z,20.29
2018-04-30T03:09:34.628Z,20.28
2018-04-30T03:10:34.969Z,20.07
2018-04-30T03:11:35.196Z,20.03
2018-04-30T03:12:35.221Z,20.03
2018-04-30T03:13:34.984Z,20.07
2018-04-30T03:14:35.282Z,19.91
2018-04-30T03:15:34.776Z,19.91
2018-04-30T03:16:35.316Z,19.88
2018-04-30T03:17:35.320Z,19.94
2018-04-30T03:18:35.094Z,19.79
2018-04-30T03:19:35.121Z,19.7
2018-04-30T03:20:35.447Z,19.66
2018-04-30T03:21:35.420Z,19.62
2018-04-30T03:22:35.442Z,19.59
2018-04-30T03:23:35.475Z,19.4
2018-04-30T03:24:35.243Z,19.49
2018-04-30T03:25:35.274Z,19.48
2018-04-30T03:26:35.296Z,19.29
2018-04-30T03:27:35.576Z,19.12
2018-04-30T03:28:35.093Z,19.02
2018-04-30T03:29:35.637Z,19.15
2018-04-30T03:30:35.646Z,19.14
2018-04-30T03:31:35.673Z,19.02
2018-04-30T03:32:35.516Z,18.89
2018-04-30T03:33:35.727Z,18.99
2018-04-30T03:34:35.744Z,18.96
2018-04-30T03:35:35.822Z,18.81
2018-04-30T03:36:35.796Z,18.71
2018-04-30T03:37:35.564Z,18.77
2018-04-30T03:38:35.589Z,18.52
2018-04-30T03:39:35.873Z,18.53
2018-04-30T03:40:35.892Z,18.53
2018-04-30T03:41:35.985Z,18.38
2018-04-30T03:42:35.936Z,18.35
2018-04-30T03:43:35.958Z,18.16
2018-04-30T03:44:35.729Z,18.19
2018-04-30T03:45:36.001Z,18.15
2018-04-30T03:46:36.036Z,18.11
2018-04-30T03:47:35.799Z,18.19
2018-04-30T03:48:36.076Z,18.2
2018-04-30T03:49:36.190Z,18.03
2018-04-30T03:50:36.175Z,17.86
2018-04-30T03:51:35.637Z,17.95
2018-04-30T03:52:36.166Z,17.9
2018-04-30T03:53:36.203Z,17.7
2018-04-30T03:54:36.225Z,17.76
2018-04-30T03:55:36.234Z,17.74
2018-04-30T03:56:36.007Z,17.68
2018-04-30T03:57:35.777Z,17.54
2018-04-30T03:58:36.316Z,17.51
2018-04-30T03:59:36.081Z,17.49
2018-04-30T04:00:36.098Z,17.36
2018-04-30T04:01:36.376Z,17.51
2018-04-30T04:02:36.148Z,17.64
2018-04-30T04:03:36.437Z,17.7
2018-04-30T04:04:36.193Z,17.65
2018-04-30T04:05:36.214Z,17.7
2018-04-30T04:06:36.287Z,17.72
2018-04-30T04:07:36.513Z,17.78
2018-04-30T04:08:36.287Z,17.86
2018-04-30T04:09:36.310Z,17.8
2018-04-30T04:10:36.584Z,17.86
2018-04-30T04:11:36.353Z,18.01
2018-04-30T04:12:36.380Z,18
2018-04-30T04:13:36.400Z,17.94
2018-04-30T04:14:36.682Z,17.87
2018-04-30T04:15:36.710Z,17.7
2018-04-30T04:16:36.724Z,17.54
2018-04-30T04:17:36.490Z,17.54
2018-04-30T04:18:36.769Z,17.38
2018-04-30T04:19:36.538Z,17.44
2018-04-30T04:20:36.804Z,17.41
2018-04-30T04:21:36.879Z,17.04
2018-04-30T04:22:36.613Z,16.91
2018-04-30T04:23:36.873Z,16.74
2018-04-30T04:24:36.916Z,16.69
2018-04-30T04:25:36.928Z,16.64
2018-04-30T04:26:36.707Z,16.56
2018-04-30T04:27:36.980Z,16.38
2018-04-30T04:28:36.989Z,16.41
2018-04-30T04:29:37.041Z,16.17
2018-04-30T04:30:37.043Z,16.05
2018-04-30T04:31:37.059Z,15.97
2018-04-30T04:32:36.837Z,15.86
2018-04-30T04:33:36.851Z,15.83
2018-04-30T04:34:37.132Z,15.72
2018-04-30T04:35:37.152Z,15.83
2018-04-30T04:36:37.222Z,15.72
2018-04-30T04:37:36.938Z,15.7
2018-04-30T04:38:37.212Z,15.64
2018-04-30T04:39:37.238Z,15.59
2018-04-30T04:40:37.259Z,15.4
2018-04-30T04:41:37.348Z,15.24
2018-04-30T04:42:37.313Z,15.19
2018-04-30T04:43:37.071Z,15.17
2018-04-30T04:44:36.839Z,15.06
2018-04-30T04:45:37.370Z,14.88
2018-04-30T04:46:37.396Z,14.99
2018-04-30T04:47:37.416Z,14.89
2018-04-30T04:48:37.443Z,15.02
2018-04-30T04:49:37.457Z,14.73
2018-04-30T04:50:37.478Z,14.62
2018-04-30T04:51:37.547Z,14.6
2018-04-30T04:52:37.543Z,14.53
2018-04-30T04:53:37.525Z,14.58
2018-04-30T04:54:37.547Z,14.5
2018-04-30T04:55:37.317Z,14.58
2018-04-30T04:56:37.591Z,14.51
2018-04-30T04:57:37.607Z,14.5
2018-04-30T04:58:37.630Z,14.5
2018-04-30T04:59:37.405Z,14.5
2018-04-30T05:00:37.418Z,14.44
2018-04-30T05:01:37.443Z,14.15
2018-04-30T05:02:37.733Z,14.1
2018-04-30T05:03:37.748Z,14.17
2018-04-30T05:04:37.773Z,14.28
2018-04-30T05:05:37.790Z,14.36
2018-04-30T05:06:37.863Z,14.37
2018-04-30T05:07:37.831Z,14.47
2018-04-30T05:08:37.851Z,14.59
2018-04-30T05:09:37.873Z,14.23
2018-04-30T05:10:37.918Z,14.25
2018-04-30T05:11:37.924Z,14.23
2018-04-30T05:12:37.973Z,14.28
2018-04-30T05:13:37.702Z,14.29
2018-04-30T05:14:37.726Z,14.1
2018-04-30T05:15:37.997Z,14.07
2018-04-30T05:16:38.028Z,14.15
2018-04-30T05:17:37.816Z,14.12
2018-04-30T05:18:37.814Z,14.11
2018-04-30T05:19:38.080Z,14.18
2018-04-30T05:20:38.099Z,14.08
2018-04-30T05:21:37.920Z,14.05
2018-04-30T05:22:38.143Z,14.03
2018-04-30T05:23:38.166Z,13.93
2018-04-30T05:24:38.188Z,13.83
2018-04-30T05:25:38.213Z,13.89
2018-04-30T05:26:37.970Z,13.87
2018-04-30T05:27:37.999Z,13.81
2018-04-30T05:28:38.262Z,13.87
2018-04-30T05:29:38.284Z,13.74
2018-04-30T05:30:38.041Z,13.74
2018-04-30T05:31:38.067Z,13.77
2018-04-30T05:32:38.087Z,13.74
2018-04-30T05:33:38.105Z,13.79
2018-04-30T05:34:38.374Z,13.79
2018-04-30T05:35:38.394Z,13.79
2018-04-30T05:36:38.473Z,13.67
2018-04-30T05:37:38.182Z,13.59
2018-04-30T05:38:38.478Z,13.72
2018-04-30T05:39:38.488Z,13.68
2018-04-30T05:40:38.513Z,13.54
2018-04-30T05:41:38.282Z,13.49
2018-04-30T05:42:38.556Z,13.42
2018-04-30T05:43:38.315Z,13.47
2018-04-30T05:44:38.336Z,13.41
2018-04-30T05:45:38.360Z,13.39
2018-04-30T05:46:38.396Z,13.3
2018-04-30T05:47:38.652Z,13.15
2018-04-30T05:48:38.674Z,13.16
2018-04-30T05:49:38.699Z,13.04
2018-04-30T05:50:38.468Z,13.03
2018-04-30T05:51:38.838Z,12.94
2018-04-30T05:52:38.767Z,12.98
2018-04-30T05:53:38.786Z,12.86
2018-04-30T05:54:38.546Z,12.78
2018-04-30T05:55:38.573Z,12.83
2018-04-30T05:56:38.587Z,13.03
2018-04-30T05:57:38.860Z,13.04
2018-04-30T05:58:38.880Z,13.22
2018-04-30T05:59:38.643Z,13.16
2018-04-30T06:00:39.129Z,13.04
2018-04-30T06:01:38.945Z,13.27
2018-04-30T06:02:38.958Z,13.22
2018-04-30T06:03:38.987Z,13.33
2018-04-30T06:04:38.490Z,13.33
2018-04-30T06:05:39.023Z,13.42
2018-04-30T06:06:39.091Z,13.57
2018-04-30T06:07:39.059Z,13.52
2018-04-30T06:08:39.081Z,13.44
2018-04-30T06:09:39.098Z,13.35
2018-04-30T06:10:39.128Z,13.16
2018-04-30T06:11:39.141Z,13.38
2018-04-30T06:12:39.153Z,13.39
2018-04-30T06:13:39.182Z,13.57
2018-04-30T06:14:38.947Z,13.27
2018-04-30T06:15:39.222Z,13.04
2018-04-30T06:16:39.232Z,12.98
2018-04-30T06:17:39.346Z,12.97
2018-04-30T06:18:39.019Z,12.82
2018-04-30T06:19:39.289Z,12.76
2018-04-30T06:20:39.307Z,12.58
2018-04-30T06:21:39.132Z,12.64
2018-04-30T06:22:39.093Z,12.61
2018-04-30T06:23:39.130Z,12.46
2018-04-30T06:24:38.897Z,12.45
2018-04-30T06:25:39.418Z,12.47
2018-04-30T06:26:39.381Z,12.45
2018-04-30T06:27:39.207Z,12.29
2018-04-30T06:28:39.477Z,12.47
2018-04-30T06:29:39.499Z,12.43
2018-04-30T06:30:39.262Z,12.43
2018-04-30T06:31:39.539Z,12.39
2018-04-30T06:32:39.303Z,12.36
2018-04-30T06:33:39.580Z,12.2
2018-04-30T06:34:39.600Z,12.25
2018-04-30T06:35:39.621Z,12.24
2018-04-30T06:36:39.429Z,12.2
2018-04-30T06:37:39.651Z,12.28
2018-04-30T06:38:39.669Z,12.42
2018-04-30T06:39:39.702Z,12.45
2018-04-30T06:40:39.719Z,12.39
2018-04-30T06:41:39.787Z,12.2
2018-04-30T06:42:39.760Z,12.04
2018-04-30T06:43:39.800Z,12.1
2018-04-30T06:44:39.790Z,12.17
2018-04-30T06:45:39.816Z,12.24
2018-04-30T06:46:39.831Z,12.22
2018-04-30T06:47:40.074Z,12.15
2018-04-30T06:48:39.871Z,11.94
2018-04-30T06:49:39.894Z,12
2018-04-30T06:50:39.907Z,12.02
2018-04-30T06:51:39.728Z,12
2018-04-30T06:52:39.945Z,12.06
2018-04-30T06:53:39.847Z,12.03
2018-04-30T06:54:39.748Z,12.09
2018-04-30T06:55:39.757Z,12.03
2018-04-30T06:56:40.026Z,12.09
2018-04-30T06:57:40.046Z,12.2
2018-04-30T06:58:40.081Z,12.18
2018-04-30T06:59:39.830Z,12.13
2018-04-30T07:00:40.099Z,12.2
2018-04-30T07:01:40.127Z,12.21
2018-04-30T07:02:40.138Z,12.24
2018-04-30T07:03:40.159Z,12.15
2018-04-30T07:04:40.179Z,12.2
2018-04-30T07:05:39.948Z,12.24
2018-04-30T07:06:40.295Z,12.32
2018-04-30T07:07:39.991Z,12.42
2018-04-30T07:08:40.001Z,12.65
2018-04-30T07:09:41.113Z,12.58
2018-04-30T07:10:40.046Z,12.79
2018-04-30T07:11:40.336Z,12.85
2018-04-30T07:12:39.855Z,12.94
2018-04-30T07:13:40.106Z,13.01
2018-04-30T07:14:40.123Z,13.05
2018-04-30T07:15:39.886Z,13.09
2018-04-30T07:16:40.416Z,13.25
2018-04-30T07:17:40.442Z,13.44
2018-04-30T07:18:40.455Z,13.59
2018-04-30T07:19:40.472Z,13.74
2018-04-30T07:20:40.494Z,13.7
2018-04-30T07:21:40.319Z,13.72
2018-04-30T07:22:40.536Z,13.65
2018-04-30T07:23:40.556Z,13.49
2018-04-30T07:24:40.327Z,13.5
2018-04-30T07:25:40.598Z,13.6
2018-04-30T07:26:40.365Z,13.57
2018-04-30T07:27:40.648Z,13.62
2018-04-30T07:28:40.657Z,13.83
2018-04-30T07:29:40.677Z,14
2018-04-30T07:30:40.465Z,14
2018-04-30T07:31:40.738Z,13.67
2018-04-30T07:32:40.486Z,13.59
2018-04-30T07:33:40.509Z,13.71
2018-04-30T07:34:40.778Z,13.65
2018-04-30T07:35:40.874Z,13.6
2018-04-30T07:36:40.622Z,13.79
2018-04-30T07:37:40.592Z,13.87
2018-04-30T07:38:40.864Z,13.96
2018-04-30T07:39:40.884Z,13.75
2018-04-30T07:40:40.918Z,13.81
2018-04-30T07:41:40.927Z,14
2018-04-30T07:42:40.943Z,14.23
2018-04-30T07:43:40.975Z,14.25
2018-04-30T07:44:40.985Z,14.37
2018-04-30T07:45:41.004Z,14.37
2018-04-30T07:46:40.784Z,14.4
2018-04-30T07:47:40.815Z,14.54
2018-04-30T07:48:41.103Z,14.58
2018-04-30T07:49:40.844Z,14.66
2018-04-30T07:50:40.861Z,14.47
2018-04-30T07:51:41.174Z,14.53
2018-04-30T07:52:41.146Z,14.73
2018-04-30T07:53:41.180Z,14.91
2018-04-30T07:54:41.392Z,15.15
2018-04-30T07:55:41.219Z,15.42
2018-04-30T07:56:41.036Z,15.4
2018-04-30T07:57:41.280Z,15.36
2018-04-30T07:58:41.290Z,15.22
2018-04-30T07:59:41.053Z,15.22
2018-04-30T08:00:41.342Z,15.29
2018-04-30T08:01:41.352Z,15.44
2018-04-30T08:02:41.370Z,15.61
2018-04-30T08:03:41.137Z,15.86
2018-04-30T08:04:41.422Z,16.02
2018-04-30T08:05:41.183Z,16.36
2018-04-30T08:06:41.515Z,16.58
2018-04-30T08:07:41.480Z,16.93
2018-04-30T08:08:41.252Z,17.15
2018-04-30T08:09:41.516Z,17.34
2018-04-30T08:10:41.548Z,17.31
2018-04-30T08:11:41.322Z,17.56
2018-04-30T08:12:41.596Z,17.45
2018-04-30T08:13:41.616Z,17.3
2018-04-30T08:14:41.389Z,17.12
2018-04-30T08:15:41.671Z,16.53
2018-04-30T08:16:41.434Z,16.58
2018-04-30T08:17:41.717Z,16.72
2018-04-30T08:18:41.480Z,16.65
2018-04-30T08:19:41.759Z,16.72
2018-04-30T08:20:41.795Z,16.87
2018-04-30T08:21:41.720Z,16.56
2018-04-30T08:22:41.829Z,16.56
2018-04-30T08:23:41.597Z,16.41
2018-04-30T08:24:41.619Z,16.53
2018-04-30T08:25:41.640Z,16.49
2018-04-30T08:26:41.663Z,16.1
2018-04-30T08:27:41.687Z,16.2
2018-04-30T08:28:41.967Z,16.41
2018-04-30T08:29:41.994Z,16.36
2018-04-30T08:30:42.011Z,15.97
2018-04-30T08:31:41.786Z,15.98
2018-04-30T08:32:42.062Z,16.32
2018-04-30T08:33:42.095Z,16.38
2018-04-30T08:34:42.100Z,16.24
2018-04-30T08:35:42.125Z,15.84
2018-04-30T08:36:42.092Z,15.75
2018-04-30T08:37:41.920Z,15.68
2018-04-30T08:38:42.219Z,15.7
2018-04-30T08:39:42.223Z,15.79
2018-04-30T08:40:42.242Z,15.88
2018-04-30T08:41:42.056Z,15.9
2018-04-30T08:42:42.279Z,16.09
2018-04-30T08:43:42.299Z,15.82
2018-04-30T08:44:42.072Z,15.95
2018-04-30T08:45:42.361Z,16.1
2018-04-30T08:46:42.383Z,16.23
2018-04-30T08:47:42.141Z,16.38
2018-04-30T08:48:41.908Z,16.49
2018-04-30T08:49:42.442Z,16.61
2018-04-30T08:50:42.469Z,16.69
2018-04-30T08:51:42.282Z,16.78
2018-04-30T08:52:42.253Z,17.08
2018-04-30T08:53:42.534Z,17.05
2018-04-30T08:54:42.553Z,17.08
2018-04-30T08:55:42.653Z,17.26
2018-04-30T08:56:42.604Z,17.02
2018-04-30T08:57:42.633Z,17.26
2018-04-30T08:58:42.653Z,17.52
2018-04-30T08:59:42.667Z,17.49
2018-04-30T09:00:42.775Z,17.49
2018-04-30T09:01:42.725Z,17.67
2018-04-30T09:02:42.488Z,17.76
2018-04-30T09:03:42.767Z,18.01
2018-04-30T09:04:42.539Z,18.16
2018-04-30T09:05:42.558Z,18.07
2018-04-30T09:06:42.636Z,17.9
2018-04-30T09:07:42.854Z,17.76
2018-04-30T09:08:42.881Z,17.44
2018-04-30T09:09:42.840Z,17.57
2018-04-30T09:10:42.978Z,17.36
2018-04-30T09:11:42.962Z,17.39
2018-04-30T09:12:42.716Z,17.51
2018-04-30T09:13:42.743Z,17.51
2018-04-30T09:14:43.023Z,17.78
2018-04-30T09:15:43.045Z,17.67
2018-04-30T09:16:43.170Z,17.67
2018-04-30T09:17:42.834Z,17.83
2018-04-30T09:18:43.113Z,18.03
2018-04-30T09:19:43.135Z,18.04
2018-04-30T09:20:42.908Z,18.2
2018-04-30T09:21:43.235Z,17.7
2018-04-30T09:22:42.953Z,17.36
2018-04-30T09:23:43.236Z,17.27
2018-04-30T09:24:43.316Z,17.31
2018-04-30T09:25:43.023Z,17.65
2018-04-30T09:26:43.315Z,18.2
2018-04-30T09:27:43.328Z,18.47
2018-04-30T09:28:43.097Z,18.89
2018-04-30T09:29:43.369Z,19.33
2018-04-30T09:30:43.393Z,19.77
2018-04-30T09:31:43.163Z,20.24
2018-04-30T09:32:43.446Z,20.62
2018-04-30T09:33:43.454Z,21.06
2018-04-30T09:34:42.977Z,21.64
2018-04-30T09:35:43.261Z,21.77
2018-04-30T09:36:43.584Z,22.07
2018-04-30T09:37:43.576Z,21.95
2018-04-30T09:38:43.587Z,21.96
2018-04-30T09:39:43.617Z,22.11
2018-04-30T09:40:43.630Z,22.06
2018-04-30T09:41:43.671Z,21.57
2018-04-30T09:42:43.677Z,21.07
2018-04-30T09:43:43.709Z,20.32
2018-04-30T09:44:43.731Z,19.49
2018-04-30T09:45:43.773Z,18.95
2018-04-30T09:46:43.789Z,19.19
2018-04-30T09:47:43.811Z,19.76
2018-04-30T09:48:43.835Z,20.06
2018-04-30T09:49:43.612Z,20.43
2018-04-30T09:50:43.897Z,20.36
2018-04-30T09:51:43.716Z,20.32
2018-04-30T09:52:43.448Z,20.48
2018-04-30T09:53:43.993Z,20.95
2018-04-30T09:54:43.507Z,20.95
2018-04-30T09:55:44.044Z,21.52
2018-04-30T09:56:43.819Z,21.69
2018-04-30T09:57:44.428Z,21.69
2018-04-30T09:58:44.123Z,21.14
2018-04-30T09:59:44.153Z,21.15
2018-04-30T10:00:43.927Z,21.27
2018-04-30T10:01:44.210Z,21.72
2018-04-30T10:02:43.972Z,22.04
2018-04-30T10:03:43.754Z,22.07
2018-04-30T10:04:44.036Z,22.29
2018-04-30T10:05:44.067Z,22.55
2018-04-30T10:06:44.138Z,22.62
2018-04-30T10:07:44.373Z,22.45
2018-04-30T10:08:44.400Z,22.38
2018-04-30T10:09:44.191Z,22.55
2018-04-30T10:10:44.200Z,22.8
2018-04-30T10:11:44.282Z,23.08
2018-04-30T10:12:44.257Z,23.63
2018-04-30T10:13:44.281Z,24.16
2018-04-30T10:14:44.578Z,24.4
2018-04-30T10:15:44.339Z,24.65
2018-04-30T10:16:44.624Z,24.76
2018-04-30T10:17:44.834Z,25.16
2018-04-30T10:18:44.681Z,25.69
2018-04-30T10:19:44.707Z,26.38
2018-04-30T10:20:44.489Z,26.83
2018-04-30T10:21:44.774Z,27.33
2018-04-30T10:22:44.545Z,27.47
2018-04-30T10:23:44.847Z,26.9
2018-04-30T10:24:44.606Z,26.02
2018-04-30T10:25:44.889Z,25.72
2018-04-30T10:26:45.063Z,25.11
2018-04-30T10:27:44.955Z,24.96
2018-04-30T10:28:45.110Z,25.07
2018-04-30T10:29:44.755Z,25.14
2018-04-30T10:30:45.047Z,24.95
2018-04-30T10:31:45.336Z,25.38
2018-04-30T10:32:45.099Z,25.96
2018-04-30T10:33:45.206Z,26.28
2018-04-30T10:34:44.907Z,26.37
2018-04-30T10:35:45.200Z,26.59
2018-04-30T10:36:45.333Z,26.9
2018-04-30T10:37:45.436Z,26.92
2018-04-30T10:38:45.025Z,26.85
2018-04-30T10:39:45.062Z,26.48
2018-04-30T10:40:45.091Z,26.19
2018-04-30T10:41:45.165Z,25.7
2018-04-30T10:42:45.399Z,25.8
2018-04-30T10:43:45.173Z,25.66
2018-04-30T10:44:45.470Z,25.33
2018-04-30T10:45:45.339Z,24.86
2018-04-30T10:46:45.567Z,25.03
2018-04-30T10:47:45.569Z,25.69
2018-04-30T10:48:45.321Z,26.06
2018-04-30T10:49:45.612Z,26.8
2018-04-30T10:50:45.636Z,27.3
2018-04-30T10:51:46.041Z,27.49
2018-04-30T10:52:45.521Z,27.92
2018-04-30T10:53:45.724Z,28.35
2018-04-30T10:54:45.501Z,28.12
2018-04-30T10:55:45.284Z,27.75
2018-04-30T10:56:45.585Z,27.42
2018-04-30T10:57:45.598Z,27.1
2018-04-30T10:58:45.629Z,26.68
2018-04-30T10:59:45.664Z,25.93
2018-04-30T11:00:45.431Z,24.92
2018-04-30T11:01:45.462Z,24.65
2018-04-30T11:02:46.282Z,24.5
2018-04-30T11:03:45.772Z,24.16
2018-04-30T11:04:45.800Z,24.03
2018-04-30T11:05:46.088Z,24.28
2018-04-30T11:06:46.169Z,24.39
2018-04-30T11:07:46.154Z,24.54
2018-04-30T11:08:46.175Z,24.76
2018-04-30T11:09:46.203Z,24.93
2018-04-30T11:10:45.976Z,25.13
2018-04-30T11:11:46.257Z,25.07
2018-04-30T11:12:45.775Z,25.07
2018-04-30T11:13:46.310Z,25.07
2018-04-30T11:14:46.343Z,25.14
2018-04-30T11:15:46.366Z,25.38
2018-04-30T11:16:46.141Z,25.23
2018-04-30T11:17:46.421Z,25.1
2018-04-30T11:18:46.451Z,25.14
2018-04-30T11:19:46.486Z,25.14
2018-04-30T11:20:46.253Z,24.84
2018-04-30T11:21:46.334Z,24.93
2018-04-30T11:22:46.392Z,25.22
2018-04-30T11:23:46.603Z,25.53
2018-04-30T11:24:46.378Z,25.93
2018-04-30T11:25:46.650Z,26.56
2018-04-30T11:26:46.684Z,27.36
2018-04-30T11:27:46.943Z,28.32
2018-04-30T11:28:46.744Z,29.12
2018-04-30T11:29:46.766Z,29.42
2018-04-30T11:30:46.542Z,29.41
2018-04-30T11:31:46.569Z,29.27
2018-04-30T11:32:46.608Z,28.93
2018-04-30T11:33:46.906Z,28.88
2018-04-30T11:34:46.675Z,28.76
2018-04-30T11:35:46.709Z,28.52
2018-04-30T11:36:47.066Z,28.17
2018-04-30T11:37:46.756Z,28.2
2018-04-30T11:38:47.060Z,28.11
2018-04-30T11:39:48.076Z,28.05
2018-04-30T11:40:46.846Z,28.27
2018-04-30T11:41:46.612Z,28.6
2018-04-30T11:42:46.901Z,29.34
2018-04-30T11:43:46.672Z,29.76
2018-04-30T11:44:46.701Z,30.18
2018-04-30T11:45:46.996Z,30.12
2018-04-30T11:46:47.292Z,30.53
2018-04-30T11:47:47.313Z,30.97
2018-04-30T11:48:48.197Z,30.81
2018-04-30T11:49:47.105Z,31.36
2018-04-30T11:50:47.406Z,31.92
2018-04-30T11:51:47.225Z,32.43
2018-04-30T11:52:47.468Z,33.17
2018-04-30T11:53:47.506Z,33.61
2018-04-30T11:54:47.267Z,34.1
2018-04-30T11:55:47.561Z,34.54
2018-04-30T11:56:47.602Z,35.1
2018-04-30T11:57:47.724Z,35.42
2018-04-30T11:58:47.542Z,34.64
2018-04-30T11:59:47.723Z,33
2018-04-30T12:00:47.479Z,32.37
2018-04-30T12:01:47.838Z,31.87
2018-04-30T12:02:47.820Z,32.27
2018-04-30T12:03:47.575Z,32.65
2018-04-30T12:04:47.880Z,32.3
2018-04-30T12:05:47.904Z,32.38
2018-04-30T12:06:47.465Z,31.59
2018-04-30T12:07:47.998Z,30.7
2018-04-30T12:08:47.482Z,30.91
2018-04-30T12:09:47.514Z,31.17
2018-04-30T12:10:48.071Z,31.71
2018-04-30T12:11:54.377Z,32.64
2018-04-30T12:12:47.875Z,32.95
2018-04-30T12:13:48.170Z,33.02
2018-04-30T12:14:48.226Z,33.23
2018-04-30T12:15:48.414Z,33.19
2018-04-30T12:16:49.689Z,32.87
2018-04-30T12:17:48.334Z,32.45
2018-04-30T12:18:47.811Z,32.31
2018-04-30T12:19:48.104Z,32.26
2018-04-30T12:20:48.397Z,32.07
2018-04-30T12:21:48.243Z,31.66
2018-04-30T12:22:48.479Z,31.25
2018-04-30T12:23:48.238Z,30.7
2018-04-30T12:24:48.702Z,30.13
2018-04-30T12:25:49.081Z,29.73
2018-04-30T12:26:48.423Z,29.14
2018-04-30T12:27:48.371Z,29.16
2018-04-30T12:28:48.409Z,28.51
2018-04-30T12:29:48.552Z,27.71
2018-04-30T12:30:48.721Z,27.2
2018-04-30T12:31:48.522Z,26.66
2018-04-30T12:32:48.519Z,26.56
2018-04-30T12:33:48.952Z,26.51
2018-04-30T12:34:49.075Z,26.52
2018-04-30T12:35:48.346Z,26.93
2018-04-30T12:36:48.973Z,27.26
2018-04-30T12:37:48.949Z,28
2018-04-30T12:38:48.958Z,29.17
2018-04-30T12:39:48.987Z,30.18
2018-04-30T12:40:49.029Z,30.87
2018-04-30T12:41:49.058Z,31.47
2018-04-30T12:42:49.098Z,31.92
2018-04-30T12:43:49.766Z,32.41
2018-04-30T12:44:49.155Z,32.45
2018-04-30T12:45:49.171Z,33.28
2018-04-30T12:46:49.202Z,34.18
2018-04-30T12:47:49.250Z,34.48
2018-04-30T12:48:49.009Z,33.64
2018-04-30T12:49:49.538Z,33.59
2018-04-30T12:50:49.643Z,34.18
2018-04-30T12:51:49.419Z,34.4
2018-04-30T12:52:50.551Z,34.51
2018-04-30T12:53:49.448Z,34.57
2018-04-30T12:54:49.471Z,34.77
2018-04-30T12:55:49.523Z,35.34
2018-04-30T12:56:49.539Z,35.39